sensor_id;sensor_type;location;lat;lon;timestamp;pressure;altitude;pressure_sealevel;temperature;humidity
61961;BME280;47923;42.506;24.192;2023-01-09T00:01:50;95942.72;;;-3.84;84.43
61961;BME280;47923;42.506;24.192;2023-01-09T00:04:19;95948.03;;;-3.79;85.38
61961;BME280;47923;42.506;24.192;2023-01-09T00:06:50;95950.09;;;-3.86;86.00
61961;BME280;47923;42.506;24.192;2023-01-09T00:09:22;95657.25;;;-5.97;85.57
61961;BME280;47923;42.506;24.192;2023-01-09T00:11:51;95954.53;;;-3.92;85.36
61961;BME280;47923;42.506;24.192;2023-01-09T00:14:19;95859.31;;;-4.64;85.19
61961;BME280;47923;42.506;24.192;2023-01-09T00:16:48;95869.13;;;-4.60;85.22
61961;BME280;47923;42.506;24.192;2023-01-09T00:19:13;95724.44;;;-5.58;84.89
61961;BME280;47923;42.506;24.192;2023-01-09T00:21:39;95957.66;;;-4.00;85.61
61961;BME280;47923;42.506;24.192;2023-01-09T00:24:05;95930.53;;;-4.27;85.89
61961;BME280;47923;42.506;24.192;2023-01-09T00:26:30;95896.66;;;-4.46;85.85
61961;BME280;47923;42.506;24.192;2023-01-09T00:28:56;95952.34;;;-4.05;86.14
61961;BME280;47923;42.506;24.192;2023-01-09T00:31:21;95959.72;;;-4.07;85.98
61961;BME280;47923;42.506;24.192;2023-01-09T00:33:59;95946.00;;;-4.09;86.14
61961;BME280;47923;42.506;24.192;2023-01-09T00:36:25;95950.16;;;-4.13;85.93
61961;BME280;47923;42.506;24.192;2023-01-09T00:38:51;95958.06;;;-4.18;85.59
61961;BME280;47923;42.506;24.192;2023-01-09T00:42:03;95919.34;;;-4.45;85.34
61961;BME280;47923;42.506;24.192;2023-01-09T00:44:20;95922.22;;;-4.46;84.39
61961;BME280;47923;42.506;24.192;2023-01-09T00:46:50;95733.63;;;-5.60;84.13
61961;BME280;47923;42.506;24.192;2023-01-09T00:49:20;95956.97;;;-4.22;84.89
61961;BME280;47923;42.506;24.192;2023-01-09T00:51:46;95951.16;;;-4.24;85.49
61961;BME280;47923;42.506;24.192;2023-01-09T00:54:16;95945.84;;;-4.29;85.88
61961;BME280;47923;42.506;24.192;2023-01-09T00:56:50;95936.88;;;-4.28;85.55
61961;BME280;47923;42.506;24.192;2023-01-09T00:59:18;95932.38;;;-4.28;85.00
61961;BME280;47923;42.506;24.192;2023-01-09T01:01:44;95934.28;;;-4.23;84.74
61961;BME280;47923;42.506;24.192;2023-01-09T01:04:09;95502.72;;;-6.98;84.52
61961;BME280;47923;42.506;24.192;2023-01-09T01:06:53;95628.69;;;-6.16;84.57
61961;BME280;47923;42.506;24.192;2023-01-09T01:09:37;95897.19;;;-4.43;84.63
61961;BME280;47923;42.506;24.192;2023-01-09T01:12:03;95929.25;;;-4.25;85.01
61961;BME280;47923;42.506;24.192;2023-01-09T01:14:32;95920.28;;;-4.24;86.15
61961;BME280;47923;42.506;24.192;2023-01-09T01:16:58;95916.03;;;-4.30;86.63
61961;BME280;47923;42.506;24.192;2023-01-09T01:19:34;95913.34;;;-4.35;87.25
61961;BME280;47923;42.506;24.192;2023-01-09T01:22:00;95906.44;;;-4.41;87.38
61961;BME280;47923;42.506;24.192;2023-01-09T01:24:25;95906.16;;;-4.45;88.31
61961;BME280;47923;42.506;24.192;2023-01-09T01:26:53;95905.84;;;-4.48;87.71
61961;BME280;47923;42.506;24.192;2023-01-09T01:29:20;95896.59;;;-4.51;87.43
61961;BME280;47923;42.506;24.192;2023-01-09T01:31:46;95897.06;;;-4.59;86.91
61961;BME280;47923;42.506;24.192;2023-01-09T01:34:11;95679.59;;;-6.00;86.81
61961;BME280;47923;42.506;24.192;2023-01-09T01:36:37;95895.75;;;-4.56;87.06
61961;BME280;47923;42.506;24.192;2023-01-09T01:39:04;95890.28;;;-4.50;87.25
61961;BME280;47923;42.506;24.192;2023-01-09T01:41:30;95391.44;;;-7.68;86.60
61961;BME280;47923;42.506;24.192;2023-01-09T01:44:01;95883.94;;;-4.49;87.20
61961;BME280;47923;42.506;24.192;2023-01-09T01:46:29;95813.53;;;-4.90;87.17
61961;BME280;47923;42.506;24.192;2023-01-09T01:49:09;95894.28;;;-4.47;86.80
61961;BME280;47923;42.506;24.192;2023-01-09T01:51:40;95870.22;;;-4.51;86.30
61961;BME280;47923;42.506;24.192;2023-01-09T01:54:20;95872.59;;;-4.49;85.76
61961;BME280;47923;42.506;24.192;2023-01-09T01:56:56;95866.84;;;-4.46;86.19
61961;BME280;47923;42.506;24.192;2023-01-09T01:59:26;95869.53;;;-4.36;86.05
61961;BME280;47923;42.506;24.192;2023-01-09T02:01:56;95621.56;;;-5.83;86.33
61961;BME280;47923;42.506;24.192;2023-01-09T02:04:23;95734.81;;;-5.14;86.70
61961;BME280;47923;42.506;24.192;2023-01-09T02:06:52;95853.84;;;-4.15;86.54
61961;BME280;47923;42.506;24.192;2023-01-09T02:09:19;95824.97;;;-4.37;86.58
61961;BME280;47923;42.506;24.192;2023-01-09T02:11:49;95671.72;;;-5.36;86.26
61961;BME280;47923;42.506;24.192;2023-01-09T02:14:22;95785.22;;;-4.63;86.50
61961;BME280;47923;42.506;24.192;2023-01-09T02:22:29;95702.84;;;-5.22;86.89
61961;BME280;47923;42.506;24.192;2023-01-09T02:33:40;95837.63;;;-4.34;86.03
61961;BME280;47923;42.506;24.192;2023-01-09T02:36:03;95831.06;;;-4.27;86.72
61961;BME280;47923;42.506;24.192;2023-01-09T02:41:53;95653.59;;;-5.27;86.57
61961;BME280;47923;42.506;24.192;2023-01-09T02:44:28;95831.81;;;-3.89;86.79
61961;BME280;47923;42.506;24.192;2023-01-09T02:47:05;95821.56;;;-3.75;85.99
61961;BME280;47923;42.506;24.192;2023-01-09T02:49:36;95820.03;;;-3.61;85.74
61961;BME280;47923;42.506;24.192;2023-01-09T03:00:35;95667.88;;;-4.03;82.47
61961;BME280;47923;42.506;24.192;2023-01-09T03:05:51;95746.94;;;-3.25;81.70
61961;BME280;47923;42.506;24.192;2023-01-09T03:08:24;95787.94;;;-2.92;81.25
61961;BME280;47923;42.506;24.192;2023-01-09T03:11:05;95699.09;;;-3.39;81.87
61961;BME280;47923;42.506;24.192;2023-01-09T03:13:57;95750.91;;;-2.97;81.89
61961;BME280;47923;42.506;24.192;2023-01-09T03:16:34;95788.97;;;-2.62;81.65
61961;BME280;47923;42.506;24.192;2023-01-09T03:19:03;95802.69;;;-2.45;81.82
61961;BME280;47923;42.506;24.192;2023-01-09T03:21:30;95554.91;;;-4.01;81.86
61961;BME280;47923;42.506;24.192;2023-01-09T03:23:59;95726.84;;;-2.85;82.10
61961;BME280;47923;42.506;24.192;2023-01-09T03:26:26;95807.16;;;-2.25;81.99
61961;BME280;47923;42.506;24.192;2023-01-09T03:29:03;95784.19;;;-2.40;81.14
61961;BME280;47923;42.506;24.192;2023-01-09T03:31:28;95709.09;;;-2.69;80.83
61961;BME280;47923;42.506;24.192;2023-01-09T03:33:54;95803.41;;;-2.09;81.18
61961;BME280;47923;42.506;24.192;2023-01-09T03:36:20;95737.84;;;-2.37;80.24
61961;BME280;47923;42.506;24.192;2023-01-09T03:38:46;95801.50;;;-1.93;80.34
61961;BME280;47923;42.506;24.192;2023-01-09T03:41:12;95447.50;;;-4.21;80.13
61961;BME280;47923;42.506;24.192;2023-01-09T03:43:40;95486.00;;;-3.84;80.09
61961;BME280;47923;42.506;24.192;2023-01-09T03:46:08;95759.47;;;-2.10;80.14
61961;BME280;47923;42.506;24.192;2023-01-09T03:48:34;95822.91;;;-1.74;79.60
61961;BME280;47923;42.506;24.192;2023-01-09T03:50:59;95658.56;;;-2.63;80.09
61961;BME280;47923;42.506;24.192;2023-01-09T03:53:26;95810.38;;;-1.58;79.52
61961;BME280;47923;42.506;24.192;2023-01-09T03:55:53;95801.63;;;-1.54;79.51
61961;BME280;47923;42.506;24.192;2023-01-09T03:58:19;95743.75;;;-1.91;79.14
61961;BME280;47923;42.506;24.192;2023-01-09T04:00:46;95745.69;;;-2.07;79.30
61961;BME280;47923;42.506;24.192;2023-01-09T04:03:14;95790.78;;;-1.62;79.00
61961;BME280;47923;42.506;24.192;2023-01-09T04:05:40;95811.59;;;-1.35;78.95
61961;BME280;47923;42.506;24.192;2023-01-09T04:08:06;95547.63;;;-2.98;78.69
61961;BME280;47923;42.506;24.192;2023-01-09T04:10:35;95635.94;;;-2.25;78.86
61961;BME280;47923;42.506;24.192;2023-01-09T04:13:00;95766.84;;;-1.42;78.96
61961;BME280;47923;42.506;24.192;2023-01-09T04:15:26;95692.72;;;-1.97;78.38
61961;BME280;47923;42.506;24.192;2023-01-09T04:17:51;95771.06;;;-1.41;78.65
61961;BME280;47923;42.506;24.192;2023-01-09T04:20:17;95813.06;;;-1.14;78.59
61961;BME280;47923;42.506;24.192;2023-01-09T04:22:45;95710.88;;;-1.75;78.77
61961;BME280;47923;42.506;24.192;2023-01-09T04:25:11;95809.31;;;-1.08;78.70
61961;BME280;47923;42.506;24.192;2023-01-09T04:27:36;95817.28;;;-1.08;79.70
61961;BME280;47923;42.506;24.192;2023-01-09T04:30:03;95761.00;;;-1.39;79.30
61961;BME280;47923;42.506;24.192;2023-01-09T04:32:28;95788.69;;;-1.16;79.60
61961;BME280;47923;42.506;24.192;2023-01-09T04:34:55;95818.03;;;-1.02;79.98
61961;BME280;47923;42.506;24.192;2023-01-09T04:37:21;95808.16;;;-0.97;80.26
61961;BME280;47923;42.506;24.192;2023-01-09T04:39:48;95786.56;;;-1.14;80.08
61961;BME280;47923;42.506;24.192;2023-01-09T04:42:14;95727.88;;;-1.42;79.90
61961;BME280;47923;42.506;24.192;2023-01-09T04:44:39;95823.47;;;-0.84;80.43
61961;BME280;47923;42.506;24.192;2023-01-09T04:47:05;95813.66;;;-0.83;80.40
61961;BME280;47923;42.506;24.192;2023-01-09T04:49:31;95682.25;;;-1.73;80.03
61961;BME280;47923;42.506;24.192;2023-01-09T04:51:58;95822.34;;;-0.72;80.22
61961;BME280;47923;42.506;24.192;2023-01-09T04:54:24;95776.91;;;-1.00;79.18
61961;BME280;47923;42.506;24.192;2023-01-09T04:56:49;95642.31;;;-1.81;79.00
61961;BME280;47923;42.506;24.192;2023-01-09T04:59:15;95806.78;;;-0.89;79.32
61961;BME280;47923;42.506;24.192;2023-01-09T05:01:41;95542.34;;;-2.44;78.79
61961;BME280;47923;42.506;24.192;2023-01-09T05:04:06;95814.88;;;-0.70;79.16
61961;BME280;47923;42.506;24.192;2023-01-09T05:06:32;95803.47;;;-0.71;79.34
61961;BME280;47923;42.506;24.192;2023-01-09T05:08:58;95811.91;;;-0.64;78.83
61961;BME280;47923;42.506;24.192;2023-01-09T05:11:24;95804.16;;;-0.60;79.09
61961;BME280;47923;42.506;24.192;2023-01-09T05:13:50;95714.97;;;-1.14;78.88
61961;BME280;47923;42.506;24.192;2023-01-09T05:16:16;95810.50;;;-0.51;78.76
61961;BME280;47923;42.506;24.192;2023-01-09T05:18:41;95697.50;;;-1.20;78.38
61961;BME280;47923;42.506;24.192;2023-01-09T05:21:07;95600.72;;;-1.81;78.46
61961;BME280;47923;42.506;24.192;2023-01-09T05:23:32;95788.31;;;-0.65;78.12
61961;BME280;47923;42.506;24.192;2023-01-09T05:25:58;95748.13;;;-0.82;78.13
61961;BME280;47923;42.506;24.192;2023-01-09T05:28:23;95681.06;;;-1.17;78.39
61961;BME280;47923;42.506;24.192;2023-01-09T05:30:49;95754.13;;;-0.72;78.53
61961;BME280;47923;42.506;24.192;2023-01-09T05:33:14;95547.59;;;-2.00;78.30
61961;BME280;47923;42.506;24.192;2023-01-09T05:35:40;95715.91;;;-1.00;79.05
61961;BME280;47923;42.506;24.192;2023-01-09T05:38:05;95803.16;;;-0.35;78.95
61961;BME280;47923;42.506;24.192;2023-01-09T05:40:31;95742.97;;;-0.69;78.61
61961;BME280;47923;42.506;24.192;2023-01-09T05:42:56;95742.06;;;-0.59;79.02
61961;BME280;47923;42.506;24.192;2023-01-09T05:45:22;95755.41;;;-0.64;79.02
61961;BME280;47923;42.506;24.192;2023-01-09T05:47:47;95803.06;;;-0.25;79.12
61961;BME280;47923;42.506;24.192;2023-01-09T05:50:13;95802.72;;;-0.18;79.18
61961;BME280;47923;42.506;24.192;2023-01-09T05:52:39;95800.03;;;-0.13;78.57
61961;BME280;47923;42.506;24.192;2023-01-09T05:55:06;95799.97;;;-0.08;78.37
61961;BME280;47923;42.506;24.192;2023-01-09T05:57:32;95796.47;;;-0.04;78.47
61961;BME280;47923;42.506;24.192;2023-01-09T06:00:00;95730.75;;;-0.41;78.03
61961;BME280;47923;42.506;24.192;2023-01-09T06:02:26;95798.50;;;0.05;77.91
61961;BME280;47923;42.506;24.192;2023-01-09T06:04:51;95791.31;;;0.05;78.51
61961;BME280;47923;42.506;24.192;2023-01-09T06:07:19;95800.31;;;0.09;78.25
61961;BME280;47923;42.506;24.192;2023-01-09T06:09:44;95806.94;;;0.12;78.31
61961;BME280;47923;42.506;24.192;2023-01-09T06:12:12;95799.47;;;0.14;78.20
61961;BME280;47923;42.506;24.192;2023-01-09T06:14:38;95705.56;;;-0.43;78.20
61961;BME280;47923;42.506;24.192;2023-01-09T06:17:03;95521.03;;;-1.55;77.04
61961;BME280;47923;42.506;24.192;2023-01-09T06:19:29;95802.75;;;0.30;77.21
61961;BME280;47923;42.506;24.192;2023-01-09T06:21:54;95814.88;;;0.36;76.76
61961;BME280;47923;42.506;24.192;2023-01-09T06:24:20;95813.47;;;0.43;76.47
61961;BME280;47923;42.506;24.192;2023-01-09T06:26:45;95808.09;;;0.48;75.95
61961;BME280;47923;42.506;24.192;2023-01-09T06:29:11;95802.22;;;0.51;75.88
61961;BME280;47923;42.506;24.192;2023-01-09T06:31:38;95800.06;;;0.53;76.19
61961;BME280;47923;42.506;24.192;2023-01-09T06:34:04;95800.78;;;0.59;76.20
61961;BME280;47923;42.506;24.192;2023-01-09T06:36:29;95727.88;;;0.04;76.23
61961;BME280;47923;42.506;24.192;2023-01-09T06:38:55;95590.47;;;-0.76;76.70
61961;BME280;47923;42.506;24.192;2023-01-09T06:41:20;95794.91;;;0.62;76.60
61961;BME280;47923;42.506;24.192;2023-01-09T06:43:46;95724.22;;;0.18;76.26
61961;BME280;47923;42.506;24.192;2023-01-09T06:46:11;95655.22;;;-0.30;76.50
61961;BME280;47923;42.506;24.192;2023-01-09T06:48:37;95785.47;;;0.70;76.56
61961;BME280;47923;42.506;24.192;2023-01-09T06:51:02;95801.88;;;0.77;76.30
61961;BME280;47923;42.506;24.192;2023-01-09T06:53:27;95782.91;;;0.83;76.59
61961;BME280;47923;42.506;24.192;2023-01-09T06:55:53;95644.63;;;-0.11;76.82
61961;BME280;47923;42.506;24.192;2023-01-09T06:58:19;95719.22;;;0.36;77.30
61961;BME280;47923;42.506;24.192;2023-01-09T07:00:44;95663.09;;;-0.01;77.49
61961;BME280;47923;42.506;24.192;2023-01-09T07:03:10;95527.16;;;-0.83;77.95
61961;BME280;47923;42.506;24.192;2023-01-09T07:05:40;95584.25;;;-0.43;78.06
61961;BME280;47923;42.506;24.192;2023-01-09T07:08:07;95795.97;;;0.99;78.25
61961;BME280;47923;42.506;24.192;2023-01-09T07:10:32;95790.00;;;1.07;77.53
61961;BME280;47923;42.506;24.192;2023-01-09T07:12:58;95788.38;;;1.11;77.44
61961;BME280;47923;42.506;24.192;2023-01-09T07:15:23;95781.16;;;1.12;77.37
61961;BME280;47923;42.506;24.192;2023-01-09T07:17:53;95776.81;;;1.16;77.53
61961;BME280;47923;42.506;24.192;2023-01-09T07:20:18;95774.88;;;1.21;77.28
61961;BME280;47923;42.506;24.192;2023-01-09T07:22:45;95779.84;;;1.28;77.08
61961;BME280;47923;42.506;24.192;2023-01-09T07:25:11;95713.09;;;0.92;76.73
61961;BME280;47923;42.506;24.192;2023-01-09T07:27:37;95710.91;;;0.94;77.33
61961;BME280;47923;42.506;24.192;2023-01-09T07:30:03;95779.66;;;1.38;77.16
61961;BME280;47923;42.506;24.192;2023-01-09T07:32:30;95588.34;;;0.25;76.39
61961;BME280;47923;42.506;24.192;2023-01-09T07:34:55;95704.44;;;1.00;76.17
61961;BME280;47923;42.506;24.192;2023-01-09T07:37:22;95675.00;;;0.77;75.71
61961;BME280;47923;42.506;24.192;2023-01-09T07:39:47;95740.47;;;1.25;76.02
61961;BME280;47923;42.506;24.192;2023-01-09T07:42:13;95559.00;;;0.16;75.73
61961;BME280;47923;42.506;24.192;2023-01-09T07:44:38;95563.34;;;0.26;75.40
61961;BME280;47923;42.506;24.192;2023-01-09T07:47:04;95674.69;;;0.98;75.44
61961;BME280;47923;42.506;24.192;2023-01-09T07:49:29;95753.34;;;1.36;75.60
61961;BME280;47923;42.506;24.192;2023-01-09T07:51:54;95692.56;;;1.25;75.13
61961;BME280;47923;42.506;24.192;2023-01-09T07:54:20;95767.94;;;1.85;74.88
61961;BME280;47923;42.506;24.192;2023-01-09T07:56:46;95619.78;;;1.02;74.23
61961;BME280;47923;42.506;24.192;2023-01-09T07:59:11;95773.78;;;2.01;74.40
61961;BME280;47923;42.506;24.192;2023-01-09T08:01:37;95451.78;;;-0.07;75.03
61961;BME280;47923;42.506;24.192;2023-01-09T08:04:03;95698.75;;;1.66;74.77
61961;BME280;47923;42.506;24.192;2023-01-09T08:06:29;95737.63;;;1.95;74.70
61961;BME280;47923;42.506;24.192;2023-01-09T08:08:55;95773.66;;;2.20;75.00
61961;BME280;47923;42.506;24.192;2023-01-09T08:11:22;95667.47;;;1.58;74.38
61961;BME280;47923;42.506;24.192;2023-01-09T08:13:48;95579.72;;;1.12;73.97
61961;BME280;47923;42.506;24.192;2023-01-09T08:16:13;95769.50;;;2.41;72.78
61961;BME280;47923;42.506;24.192;2023-01-09T08:18:39;95767.22;;;2.48;72.33
61961;BME280;47923;42.506;24.192;2023-01-09T08:21:05;95545.31;;;1.16;71.91
61961;BME280;47923;42.506;24.192;2023-01-09T08:23:30;95768.19;;;2.66;71.60
61961;BME280;47923;42.506;24.192;2023-01-09T08:25:56;95664.81;;;2.00;72.10
61961;BME280;47923;42.506;24.192;2023-01-09T08:28:21;95468.84;;;0.66;73.57
61961;BME280;47923;42.506;24.192;2023-01-09T08:30:46;95520.88;;;1.00;73.65
61961;BME280;47923;42.506;24.192;2023-01-09T08:33:12;95736.69;;;2.55;73.21
61961;BME280;47923;42.506;24.192;2023-01-09T08:35:38;95482.34;;;0.83;72.74
61961;BME280;47923;42.506;24.192;2023-01-09T08:38:03;95752.38;;;2.70;72.34
61961;BME280;47923;42.506;24.192;2023-01-09T08:40:29;95783.53;;;2.97;71.29
61961;BME280;47923;42.506;24.192;2023-01-09T08:42:54;95644.16;;;2.05;72.56
61961;BME280;47923;42.506;24.192;2023-01-09T08:45:38;95642.97;;;1.98;74.52
61961;BME280;47923;42.506;24.192;2023-01-09T08:48:22;95753.94;;;2.71;74.90
61961;BME280;47923;42.506;24.192;2023-01-09T08:50:47;95776.31;;;2.97;74.91
61961;BME280;47923;42.506;24.192;2023-01-09T08:53:13;95787.16;;;3.01;75.07
61961;BME280;47923;42.506;24.192;2023-01-09T08:55:40;95801.19;;;3.07;74.54
61961;BME280;47923;42.506;24.192;2023-01-09T08:58:05;95610.13;;;2.02;74.61
61961;BME280;47923;42.506;24.192;2023-01-09T09:00:31;95688.19;;;2.53;75.27
61961;BME280;47923;42.506;24.192;2023-01-09T09:02:58;95775.78;;;3.09;74.72
61961;BME280;47923;42.506;24.192;2023-01-09T09:05:26;95773.13;;;3.09;74.25
61961;BME280;47923;42.506;24.192;2023-01-09T09:07:53;95744.22;;;2.89;75.26
61961;BME280;47923;42.506;24.192;2023-01-09T09:10:24;95765.28;;;3.13;75.97
61961;BME280;47923;42.506;24.192;2023-01-09T09:12:52;95758.84;;;3.14;76.69
61961;BME280;47923;42.506;24.192;2023-01-09T09:15:17;95575.31;;;1.99;76.60
61961;BME280;47923;42.506;24.192;2023-01-09T09:18:00;95763.81;;;3.29;77.00
61961;BME280;47923;42.506;24.192;2023-01-09T09:20:31;95765.13;;;3.31;76.79
61961;BME280;47923;42.506;24.192;2023-01-09T09:22:57;95701.09;;;2.95;76.41
61961;BME280;47923;42.506;24.192;2023-01-09T09:25:23;95754.59;;;3.35;76.75
61961;BME280;47923;42.506;24.192;2023-01-09T09:27:49;95746.59;;;3.35;77.79
61961;BME280;47923;42.506;24.192;2023-01-09T09:30:17;95709.41;;;3.16;78.09
61961;BME280;47923;42.506;24.192;2023-01-09T09:32:42;95740.34;;;3.40;77.80
61961;BME280;47923;42.506;24.192;2023-01-09T09:35:08;95741.00;;;3.23;78.49
61961;BME280;47923;42.506;24.192;2023-01-09T09:37:34;95679.13;;;2.98;78.42
61961;BME280;47923;42.506;24.192;2023-01-09T09:40:00;95745.72;;;3.48;78.39
61961;BME280;47923;42.506;24.192;2023-01-09T09:53:21;95720.88;;;3.70;78.78
61961;BME280;47923;42.506;24.192;2023-01-09T09:55:51;95694.09;;;3.62;78.57
61961;BME280;47923;42.506;24.192;2023-01-09T09:58:36;95718.56;;;3.86;77.87
61961;BME280;47923;42.506;24.192;2023-01-09T10:01:03;95704.09;;;3.87;78.73
61961;BME280;47923;42.506;24.192;2023-01-09T10:03:34;95701.31;;;4.01;77.51
61961;BME280;47923;42.506;24.192;2023-01-09T10:06:30;95717.06;;;4.11;77.03
61961;BME280;47923;42.506;24.192;2023-01-09T10:09:04;95709.25;;;4.14;77.15
61961;BME280;47923;42.506;24.192;2023-01-09T10:11:56;95645.47;;;3.82;77.52
61961;BME280;47923;42.506;24.192;2023-01-09T10:14:22;95604.03;;;3.53;77.94
61961;BME280;47923;42.506;24.192;2023-01-09T10:35:50;95661.63;;;4.42;77.47
61961;BME280;47923;42.506;24.192;2023-01-09T10:38:18;95650.91;;;4.60;76.85
61961;BME280;47923;42.506;24.192;2023-01-09T10:40:50;95497.50;;;3.60;76.20
61961;BME280;47923;42.506;24.192;2023-01-09T10:43:29;95558.22;;;4.03;76.71
61961;BME280;47923;42.506;24.192;2023-01-09T10:46:06;95616.16;;;4.51;76.77
61961;BME280;47923;42.506;24.192;2023-01-09T10:48:36;95641.31;;;4.76;76.37
61961;BME280;47923;42.506;24.192;2023-01-09T10:51:13;95213.44;;;2.18;74.83
61961;BME280;47923;42.506;24.192;2023-01-09T10:53:42;95577.25;;;4.54;75.58
61961;BME280;47923;42.506;24.192;2023-01-09T10:56:31;95531.66;;;4.15;75.99
61961;BME280;47923;42.506;24.192;2023-01-09T10:58:58;95557.94;;;4.22;77.63
61961;BME280;47923;42.506;24.192;2023-01-09T11:01:29;95521.44;;;4.00;77.13
61961;BME280;47923;42.506;24.192;2023-01-09T11:03:56;95585.63;;;4.35;78.12
61961;BME280;47923;42.506;24.192;2023-01-09T11:06:40;95485.09;;;3.65;78.47
61961;BME280;47923;42.506;24.192;2023-01-09T11:09:08;95591.09;;;4.47;78.96
61961;BME280;47923;42.506;24.192;2023-01-09T11:11:36;95583.09;;;4.47;78.39
61961;BME280;47923;42.506;24.192;2023-01-09T11:14:12;95579.78;;;4.59;78.18
61961;BME280;47923;42.506;24.192;2023-01-09T11:16:53;95533.84;;;4.48;78.15
61961;BME280;47923;42.506;24.192;2023-01-09T11:19:19;95384.34;;;3.39;77.76
61961;BME280;47923;42.506;24.192;2023-01-09T11:21:46;95487.56;;;4.39;77.54
61961;BME280;47923;42.506;24.192;2023-01-09T11:26:44;95502.88;;;4.21;78.22
61961;BME280;47923;42.506;24.192;2023-01-09T11:29:13;95570.50;;;4.39;79.06
61961;BME280;47923;42.506;24.192;2023-01-09T11:31:40;95560.88;;;4.55;78.46
61961;BME280;47923;42.506;24.192;2023-01-09T11:34:16;95560.09;;;4.63;77.98
61961;BME280;47923;42.506;24.192;2023-01-09T11:36:42;95564.66;;;4.54;79.07
61961;BME280;47923;42.506;24.192;2023-01-09T11:39:29;95497.69;;;4.16;79.05
61961;BME280;47923;42.506;24.192;2023-01-09T11:42:01;95552.41;;;4.44;79.68
61961;BME280;47923;42.506;24.192;2023-01-09T11:44:29;95504.47;;;4.05;78.92
61961;BME280;47923;42.506;24.192;2023-01-09T11:46:55;95552.09;;;4.20;80.19
61961;BME280;47923;42.506;24.192;2023-01-09T11:49:23;95392.13;;;3.01;80.06
61961;BME280;47923;42.506;24.192;2023-01-09T11:52:13;95553.38;;;4.14;80.75
61961;BME280;47923;42.506;24.192;2023-01-09T11:54:55;95540.47;;;4.07;80.38
61961;BME280;47923;42.506;24.192;2023-01-09T11:57:23;95525.03;;;3.96;80.65
61961;BME280;47923;42.506;24.192;2023-01-09T11:59:50;95547.22;;;4.05;80.47
61961;BME280;47923;42.506;24.192;2023-01-09T12:05:35;95536.38;;;3.93;80.34
61961;BME280;47923;42.506;24.192;2023-01-09T12:08:21;95528.97;;;4.07;80.46
61961;BME280;47923;42.506;24.192;2023-01-09T12:13:51;95521.09;;;4.10;80.04
61961;BME280;47923;42.506;24.192;2023-01-09T12:16:30;95526.94;;;4.12;80.48
61961;BME280;47923;42.506;24.192;2023-01-09T12:31:10;95498.75;;;4.41;78.31
61961;BME280;47923;42.506;24.192;2023-01-09T12:33:47;95499.84;;;4.40;79.35
61961;BME280;47923;42.506;24.192;2023-01-09T12:36:27;95429.59;;;4.05;78.53
61961;BME280;47923;42.506;24.192;2023-01-09T12:52:39;95486.44;;;4.57;77.22
61961;BME280;47923;42.506;24.192;2023-01-09T12:55:26;95489.44;;;4.56;76.99
61961;BME280;47923;42.506;24.192;2023-01-09T12:58:01;95488.97;;;4.45;77.29
61961;BME280;47923;42.506;24.192;2023-01-09T13:00:36;95488.34;;;4.39;77.89
61961;BME280;47923;42.506;24.192;2023-01-09T13:03:33;95480.66;;;4.38;78.02
61961;BME280;47923;42.506;24.192;2023-01-09T13:06:01;95487.25;;;4.40;78.05
61961;BME280;47923;42.506;24.192;2023-01-09T13:08:33;95430.53;;;4.09;77.93
61961;BME280;47923;42.506;24.192;2023-01-09T13:16:46;95422.59;;;4.38;76.46
61961;BME280;47923;42.506;24.192;2023-01-09T13:19:17;95465.94;;;4.79;76.64
61961;BME280;47923;42.506;24.192;2023-01-09T13:21:46;95344.41;;;3.86;75.16
61961;BME280;47923;42.506;24.192;2023-01-09T13:24:17;95473.97;;;4.70;75.65
61961;BME280;47923;42.506;24.192;2023-01-09T13:26:51;95283.03;;;3.34;75.39
61961;BME280;47923;42.506;24.192;2023-01-09T13:29:28;95477.50;;;4.44;75.30
61961;BME280;47923;42.506;24.192;2023-01-09T13:34:29;95476.91;;;4.30;76.42
61961;BME280;47923;42.506;24.192;2023-01-09T13:36:56;95490.91;;;4.36;75.80
61961;BME280;47923;42.506;24.192;2023-01-09T13:39:28;95480.03;;;4.41;75.63
61961;BME280;47923;42.506;24.192;2023-01-09T13:41:59;95480.81;;;4.41;75.72
61961;BME280;47923;42.506;24.192;2023-01-09T13:45:21;95488.06;;;4.24;76.19
61961;BME280;47923;42.506;24.192;2023-01-09T13:50:45;95467.00;;;3.96;76.62
61961;BME280;47923;42.506;24.192;2023-01-09T13:58:30;95420.03;;;3.60;77.39
61961;BME280;47923;42.506;24.192;2023-01-09T14:06:34;95350.25;;;3.01;77.37
61961;BME280;47923;42.506;24.192;2023-01-09T14:09:18;95320.06;;;2.75;78.25
61961;BME280;47923;42.506;24.192;2023-01-09T14:11:46;95456.78;;;3.55;79.07
61961;BME280;47923;42.506;24.192;2023-01-09T14:14:30;95396.88;;;3.13;77.89
61961;BME280;47923;42.506;24.192;2023-01-09T14:16:58;95454.41;;;3.45;78.64
61961;BME280;47923;42.506;24.192;2023-01-09T14:19:38;95159.16;;;1.48;78.48
61961;BME280;47923;42.506;24.192;2023-01-09T14:22:05;95429.69;;;3.13;78.82
61961;BME280;47923;42.506;24.192;2023-01-09T14:24:39;95446.06;;;3.29;78.82
61961;BME280;47923;42.506;24.192;2023-01-09T14:33:23;95442.94;;;3.36;79.24
61961;BME280;47923;42.506;24.192;2023-01-09T14:35:53;95436.03;;;3.35;78.58
61961;BME280;47923;42.506;24.192;2023-01-09T14:38:42;95442.34;;;3.39;78.65
61961;BME280;47923;42.506;24.192;2023-01-09T14:41:18;95301.16;;;2.37;78.23
61961;BME280;47923;42.506;24.192;2023-01-09T14:44:00;95442.94;;;3.44;78.27
61961;BME280;47923;42.506;24.192;2023-01-09T14:46:33;95415.13;;;3.28;78.01
61961;BME280;47923;42.506;24.192;2023-01-09T14:49:06;95438.88;;;3.38;78.62
61961;BME280;47923;42.506;24.192;2023-01-09T14:51:41;95440.72;;;3.38;78.92
61961;BME280;47923;42.506;24.192;2023-01-09T14:54:33;95340.28;;;2.67;78.90
61961;BME280;47923;42.506;24.192;2023-01-09T14:57:00;95421.56;;;3.27;78.66
61961;BME280;47923;42.506;24.192;2023-01-09T14:59:26;95435.56;;;3.32;79.05
61961;BME280;47923;42.506;24.192;2023-01-09T15:01:53;95276.03;;;2.29;79.26
61961;BME280;47923;42.506;24.192;2023-01-09T15:04:40;95435.25;;;3.34;78.77
61961;BME280;47923;42.506;24.192;2023-01-09T15:07:05;95436.34;;;3.33;78.41
61961;BME280;47923;42.506;24.192;2023-01-09T15:09:43;95374.09;;;2.89;78.44